sensor_id;sensor_type;location;lat;lon;timestamp;temperature;humidity
45409;DHT22;31162;51.076;3.784;2023-08-12T00:01:48;22.40;99.90
45409;DHT22;31162;51.076;3.784;2023-08-12T00:04:16;22.40;99.90
45409;DHT22;31162;51.076;3.784;2023-08-12T00:06:43;22.40;99.90
45409;DHT22;31162;51.076;3.784;2023-08-12T00:09:09;22.40;99.90
45409;DHT22;31162;51.076;3.784;2023-08-12T00:11:37;22.40;99.90
45409;DHT22;31162;51.076;3.784;2023-08-12T00:14:03;22.40;99.90
45409;DHT22;31162;51.076;3.784;2023-08-12T00:16:29;22.50;99.90
45409;DHT22;31162;51.076;3.784;2023-08-12T00:18:55;22.30;99.90
45409;DHT22;31162;51.076;3.784;2023-08-12T00:21:21;22.30;99.90
45409;DHT22;31162;51.076;3.784;2023-08-12T00:23:46;22.20;99.90
45409;DHT22;31162;51.076;3.784;2023-08-12T00:26:15;22.20;99.90
45409;DHT22;31162;51.076;3.784;2023-08-12T00:28:44;22.10;99.90
45409;DHT22;31162;51.076;3.784;2023-08-12T00:31:09;22.00;99.90
45409;DHT22;31162;51.076;3.784;2023-08-12T00:33:37;22.00;99.90
45409;DHT22;31162;51.076;3.784;2023-08-12T00:36:03;22.10;99.90
45409;DHT22;31162;51.076;3.784;2023-08-12T00:38:28;22.10;99.90
45409;DHT22;31162;51.076;3.784;2023-08-12T00:40:54;22.10;99.90
45409;DHT22;31162;51.076;3.784;2023-08-12T00:43:20;22.20;99.90
45409;DHT22;31162;51.076;3.784;2023-08-12T00:45:45;22.20;99.90
45409;DHT22;31162;51.076;3.784;2023-08-12T00:48:11;22.30;99.90
45409;DHT22;31162;51.076;3.784;2023-08-12T00:50:37;22.20;99.90
45409;DHT22;31162;51.076;3.784;2023-08-12T00:53:04;22.10;99.90
45409;DHT22;31162;51.076;3.784;2023-08-12T00:55:33;21.90;99.90
45409;DHT22;31162;51.076;3.784;2023-08-12T00:57:59;21.80;99.90
45409;DHT22;31162;51.076;3.784;2023-08-12T01:00:28;21.70;99.90
45409;DHT22;31162;51.076;3.784;2023-08-12T01:02:54;21.70;99.90
45409;DHT22;31162;51.076;3.784;2023-08-12T01:05:22;21.50;99.90
45409;DHT22;31162;51.076;3.784;2023-08-12T01:07:48;21.60;99.90
45409;DHT22;31162;51.076;3.784;2023-08-12T01:10:14;21.60;99.90
45409;DHT22;31162;51.076;3.784;2023-08-12T01:15:30;21.50;99.90
45409;DHT22;31162;51.076;3.784;2023-08-12T01:17:58;21.40;99.90
45409;DHT22;31162;51.076;3.784;2023-08-12T01:20:25;21.40;99.90
45409;DHT22;31162;51.076;3.784;2023-08-12T01:23:09;21.40;99.90
45409;DHT22;31162;51.076;3.784;2023-08-12T01:25:35;21.40;99.90
45409;DHT22;31162;51.076;3.784;2023-08-12T01:28:03;21.40;99.90
45409;DHT22;31162;51.076;3.784;2023-08-12T01:30:29;21.50;99.90
45409;DHT22;31162;51.076;3.784;2023-08-12T01:33:09;21.40;99.90
45409;DHT22;31162;51.076;3.784;2023-08-12T01:35:53;21.40;99.90
45409;DHT22;31162;51.076;3.784;2023-08-12T01:38:19;21.50;99.90
45409;DHT22;31162;51.076;3.784;2023-08-12T01:40:47;21.50;99.90
45409;DHT22;31162;51.076;3.784;2023-08-12T01:43:13;21.50;99.90
45409;DHT22;31162;51.076;3.784;2023-08-12T01:45:41;21.50;99.90
45409;DHT22;31162;51.076;3.784;2023-08-12T01:48:07;21.40;99.90
45409;DHT22;31162;51.076;3.784;2023-08-12T01:50:32;21.30;99.90
45409;DHT22;31162;51.076;3.784;2023-08-12T01:52:58;21.30;99.90
45409;DHT22;31162;51.076;3.784;2023-08-12T01:55:24;21.30;99.90
45409;DHT22;31162;51.076;3.784;2023-08-12T01:57:49;21.30;99.90
45409;DHT22;31162;51.076;3.784;2023-08-12T02:00:15;21.30;99.90
45409;DHT22;31162;51.076;3.784;2023-08-12T02:02:41;21.30;99.90
45409;DHT22;31162;51.076;3.784;2023-08-12T02:05:07;21.30;99.90
45409;DHT22;31162;51.076;3.784;2023-08-12T02:07:33;21.30;99.90
45409;DHT22;31162;51.076;3.784;2023-08-12T02:09:58;21.30;99.90
45409;DHT22;31162;51.076;3.784;2023-08-12T02:12:24;21.30;99.90
45409;DHT22;31162;51.076;3.784;2023-08-12T02:14:50;21.30;99.90
45409;DHT22;31162;51.076;3.784;2023-08-12T02:17:15;21.30;99.90
45409;DHT22;31162;51.076;3.784;2023-08-12T02:19:41;21.20;99.90
45409;DHT22;31162;51.076;3.784;2023-08-12T02:22:06;21.20;99.90
45409;DHT22;31162;51.076;3.784;2023-08-12T02:24:32;21.20;99.90
45409;DHT22;31162;51.076;3.784;2023-08-12T02:26:58;21.30;99.90
45409;DHT22;31162;51.076;3.784;2023-08-12T02:29:23;21.10;99.90
45409;DHT22;31162;51.076;3.784;2023-08-12T02:31:49;21.20;99.90
45409;DHT22;31162;51.076;3.784;2023-08-12T02:34:15;21.20;99.90
45409;DHT22;31162;51.076;3.784;2023-08-12T02:36:40;21.20;99.90
45409;DHT22;31162;51.076;3.784;2023-08-12T02:39:06;21.10;99.90
45409;DHT22;31162;51.076;3.784;2023-08-12T02:41:32;21.00;99.90
45409;DHT22;31162;51.076;3.784;2023-08-12T02:43:57;20.90;99.90
45409;DHT22;31162;51.076;3.784;2023-08-12T02:46:23;20.90;99.90
45409;DHT22;31162;51.076;3.784;2023-08-12T02:48:50;20.80;99.90
45409;DHT22;31162;51.076;3.784;2023-08-12T02:51:16;20.70;99.90
45409;DHT22;31162;51.076;3.784;2023-08-12T02:53:42;20.70;99.90
45409;DHT22;31162;51.076;3.784;2023-08-12T02:56:07;20.70;99.90
45409;DHT22;31162;51.076;3.784;2023-08-12T02:58:33;20.80;99.90
45409;DHT22;31162;51.076;3.784;2023-08-12T03:00:59;20.80;99.90
45409;DHT22;31162;51.076;3.784;2023-08-12T03:03:25;20.80;99.90
45409;DHT22;31162;51.076;3.784;2023-08-12T03:05:51;20.80;99.90
45409;DHT22;31162;51.076;3.784;2023-08-12T03:08:16;20.90;99.90
45409;DHT22;31162;51.076;3.784;2023-08-12T03:10:44;21.00;99.90
45409;DHT22;31162;51.076;3.784;2023-08-12T03:13:11;21.10;99.90
45409;DHT22;31162;51.076;3.784;2023-08-12T03:15:40;20.90;99.90
45409;DHT22;31162;51.076;3.784;2023-08-12T03:18:07;20.90;99.90
45409;DHT22;31162;51.076;3.784;2023-08-12T03:20:33;20.80;99.90
45409;DHT22;31162;51.076;3.784;2023-08-12T03:22:58;20.80;99.90
45409;DHT22;31162;51.076;3.784;2023-08-12T03:25:25;20.90;99.90
45409;DHT22;31162;51.076;3.784;2023-08-12T03:27:51;21.00;99.90
45409;DHT22;31162;51.076;3.784;2023-08-12T03:30:16;20.90;99.90
45409;DHT22;31162;51.076;3.784;2023-08-12T03:32:42;20.90;99.90
45409;DHT22;31162;51.076;3.784;2023-08-12T03:35:08;20.80;99.90
45409;DHT22;31162;51.076;3.784;2023-08-12T03:37:34;20.80;99.90
45409;DHT22;31162;51.076;3.784;2023-08-12T03:40:00;20.90;99.90
45409;DHT22;31162;51.076;3.784;2023-08-12T03:42:25;20.80;99.90
45409;DHT22;31162;51.076;3.784;2023-08-12T03:44:51;20.70;99.90
45409;DHT22;31162;51.076;3.784;2023-08-12T03:47:17;20.70;99.90
45409;DHT22;31162;51.076;3.784;2023-08-12T03:49:47;20.70;99.90
45409;DHT22;31162;51.076;3.784;2023-08-12T03:52:13;20.70;99.90
45409;DHT22;31162;51.076;3.784;2023-08-12T03:54:38;20.70;99.90
45409;DHT22;31162;51.076;3.784;2023-08-12T03:57:04;20.80;99.90
45409;DHT22;31162;51.076;3.784;2023-08-12T03:59:31;20.80;99.90
45409;DHT22;31162;51.076;3.784;2023-08-12T04:01:56;20.80;99.90
45409;DHT22;31162;51.076;3.784;2023-08-12T04:04:23;20.90;99.90
45409;DHT22;31162;51.076;3.784;2023-08-12T04:06:49;20.80;99.90
45409;DHT22;31162;51.076;3.784;2023-08-12T04:09:17;20.90;99.90
45409;DHT22;31162;51.076;3.784;2023-08-12T04:11:43;20.90;99.90
45409;DHT22;31162;51.076;3.784;2023-08-12T04:14:09;20.80;99.90
45409;DHT22;31162;51.076;3.784;2023-08-12T04:16:35;20.80;99.90
45409;DHT22;31162;51.076;3.784;2023-08-12T04:19:01;20.80;99.90
45409;DHT22;31162;51.076;3.784;2023-08-12T04:21:27;20.80;99.90
45409;DHT22;31162;51.076;3.784;2023-08-12T04:23:53;20.80;99.90
45409;DHT22;31162;51.076;3.784;2023-08-12T04:26:19;20.80;99.90
45409;DHT22;31162;51.076;3.784;2023-08-12T04:28:44;20.70;99.90
45409;DHT22;31162;51.076;3.784;2023-08-12T04:31:10;20.70;99.90
45409;DHT22;31162;51.076;3.784;2023-08-12T04:33:36;20.70;99.90
45409;DHT22;31162;51.076;3.784;2023-08-12T04:36:01;20.60;99.90
45409;DHT22;31162;51.076;3.784;2023-08-12T04:38:27;20.60;99.90
45409;DHT22;31162;51.076;3.784;2023-08-12T04:40:53;20.60;99.90
45409;DHT22;31162;51.076;3.784;2023-08-12T04:43:19;20.50;99.90
45409;DHT22;31162;51.076;3.784;2023-08-12T04:45:48;20.50;99.90
45409;DHT22;31162;51.076;3.784;2023-08-12T04:48:14;20.60;99.90
45409;DHT22;31162;51.076;3.784;2023-08-12T04:50:42;20.60;99.90
45409;DHT22;31162;51.076;3.784;2023-08-12T04:53:08;20.60;99.90
45409;DHT22;31162;51.076;3.784;2023-08-12T04:55:34;20.70;99.90
45409;DHT22;31162;51.076;3.784;2023-08-12T04:58:02;20.60;99.90
45409;DHT22;31162;51.076;3.784;2023-08-12T05:00:28;20.60;99.90
45409;DHT22;31162;51.076;3.784;2023-08-12T05:02:53;20.60;99.90
45409;DHT22;31162;51.076;3.784;2023-08-12T05:05:19;20.60;99.90
45409;DHT22;31162;51.076;3.784;2023-08-12T05:07:45;20.60;99.90
45409;DHT22;31162;51.076;3.784;2023-08-12T05:10:17;20.70;99.90
45409;DHT22;31162;51.076;3.784;2023-08-12T05:12:46;20.60;99.90
45409;DHT22;31162;51.076;3.784;2023-08-12T05:15:13;20.60;99.90
45409;DHT22;31162;51.076;3.784;2023-08-12T05:17:38;20.60;99.90
45409;DHT22;31162;51.076;3.784;2023-08-12T05:20:05;20.60;99.90
45409;DHT22;31162;51.076;3.784;2023-08-12T05:22:34;20.60;99.90
45409;DHT22;31162;51.076;3.784;2023-08-12T05:24:59;20.60;99.90
45409;DHT22;31162;51.076;3.784;2023-08-12T05:27:25;20.70;99.90
45409;DHT22;31162;51.076;3.784;2023-08-12T05:29:51;20.70;99.90
45409;DHT22;31162;51.076;3.784;2023-08-12T05:32:16;20.70;99.90
45409;DHT22;31162;51.076;3.784;2023-08-12T05:34:42;20.80;99.90
45409;DHT22;31162;51.076;3.784;2023-08-12T05:37:07;20.80;99.90
45409;DHT22;31162;51.076;3.784;2023-08-12T05:39:34;20.90;99.90
45409;DHT22;31162;51.076;3.784;2023-08-12T05:42:00;20.90;99.90
45409;DHT22;31162;51.076;3.784;2023-08-12T05:44:25;20.80;99.90
45409;DHT22;31162;51.076;3.784;2023-08-12T05:46:51;20.80;99.90
45409;DHT22;31162;51.076;3.784;2023-08-12T05:49:16;20.70;99.90
45409;DHT22;31162;51.076;3.784;2023-08-12T05:51:42;20.70;99.90
45409;DHT22;31162;51.076;3.784;2023-08-12T05:54:08;20.60;99.90
45409;DHT22;31162;51.076;3.784;2023-08-12T05:56:37;20.40;99.90
45409;DHT22;31162;51.076;3.784;2023-08-12T05:59:02;20.20;99.90
45409;DHT22;31162;51.076;3.784;2023-08-12T06:01:28;20.10;99.90
45409;DHT22;31162;51.076;3.784;2023-08-12T06:03:54;20.10;99.90
45409;DHT22;31162;51.076;3.784;2023-08-12T06:06:19;19.90;99.90
45409;DHT22;31162;51.076;3.784;2023-08-12T06:08:45;19.80;99.90
45409;DHT22;31162;51.076;3.784;2023-08-12T06:11:10;19.80;99.90
45409;DHT22;31162;51.076;3.784;2023-08-12T06:13:36;19.70;99.90
45409;DHT22;31162;51.076;3.784;2023-08-12T06:16:02;19.60;99.90
45409;DHT22;31162;51.076;3.784;2023-08-12T06:18:27;19.60;99.90
45409;DHT22;31162;51.076;3.784;2023-08-12T06:20:54;19.60;99.90
45409;DHT22;31162;51.076;3.784;2023-08-12T06:23:22;19.70;99.90
45409;DHT22;31162;51.076;3.784;2023-08-12T06:25:48;19.90;99.90
45409;DHT22;31162;51.076;3.784;2023-08-12T06:28:13;19.90;99.90
45409;DHT22;31162;51.076;3.784;2023-08-12T06:30:39;19.80;99.90
45409;DHT22;31162;51.076;3.784;2023-08-12T06:33:04;19.70;99.90
45409;DHT22;31162;51.076;3.784;2023-08-12T06:35:30;19.70;99.90
45409;DHT22;31162;51.076;3.784;2023-08-12T06:37:58;19.70;99.90
45409;DHT22;31162;51.076;3.784;2023-08-12T06:40:23;19.70;99.90
45409;DHT22;31162;51.076;3.784;2023-08-12T06:42:49;19.70;99.90
45409;DHT22;31162;51.076;3.784;2023-08-12T06:45:15;19.70;99.90
45409;DHT22;31162;51.076;3.784;2023-08-12T06:47:41;19.80;99.90
45409;DHT22;31162;51.076;3.784;2023-08-12T06:50:07;19.80;99.90
45409;DHT22;31162;51.076;3.784;2023-08-12T06:52:33;19.90;99.90
45409;DHT22;31162;51.076;3.784;2023-08-12T06:54:59;20.10;99.90
45409;DHT22;31162;51.076;3.784;2023-08-12T06:57:24;20.30;99.90
45409;DHT22;31162;51.076;3.784;2023-08-12T06:59:50;20.60;99.90
45409;DHT22;31162;51.076;3.784;2023-08-12T07:02:15;20.70;99.90
45409;DHT22;31162;51.076;3.784;2023-08-12T07:04:44;20.70;99.90
45409;DHT22;31162;51.076;3.784;2023-08-12T07:07:10;21.00;99.90
45409;DHT22;31162;51.076;3.784;2023-08-12T07:09:35;21.30;99.90
45409;DHT22;31162;51.076;3.784;2023-08-12T07:12:01;21.30;99.90
45409;DHT22;31162;51.076;3.784;2023-08-12T07:14:28;21.30;99.90
45409;DHT22;31162;51.076;3.784;2023-08-12T07:16:54;21.10;99.90
45409;DHT22;31162;51.076;3.784;2023-08-12T07:19:22;21.40;99.90
45409;DHT22;31162;51.076;3.784;2023-08-12T07:21:47;21.40;99.90
45409;DHT22;31162;51.076;3.784;2023-08-12T07:24:13;21.60;99.90
45409;DHT22;31162;51.076;3.784;2023-08-12T07:26:38;22.00;99.90
45409;DHT22;31162;51.076;3.784;2023-08-12T07:29:04;22.80;99.90
45409;DHT22;31162;51.076;3.784;2023-08-12T07:31:30;23.20;99.90
45409;DHT22;31162;51.076;3.784;2023-08-12T07:33:55;23.20;99.90
45409;DHT22;31162;51.076;3.784;2023-08-12T07:36:21;23.30;99.90
45409;DHT22;31162;51.076;3.784;2023-08-12T07:38:47;23.40;99.90
45409;DHT22;31162;51.076;3.784;2023-08-12T07:41:13;23.60;99.90
45409;DHT22;31162;51.076;3.784;2023-08-12T07:43:39;24.40;99.90
45409;DHT22;31162;51.076;3.784;2023-08-12T07:46:04;25.00;99.90
45409;DHT22;31162;51.076;3.784;2023-08-12T07:48:30;25.50;99.90
45409;DHT22;31162;51.076;3.784;2023-08-12T07:50:59;25.80;99.90
45409;DHT22;31162;51.076;3.784;2023-08-12T07:53:25;25.40;99.90
45409;DHT22;31162;51.076;3.784;2023-08-12T07:55:51;24.90;99.90
45409;DHT22;31162;51.076;3.784;2023-08-12T07:58:18;25.10;99.90
45409;DHT22;31162;51.076;3.784;2023-08-12T08:00:43;25.30;99.90
45409;DHT22;31162;51.076;3.784;2023-08-12T08:03:09;25.50;99.90
45409;DHT22;31162;51.076;3.784;2023-08-12T08:05:35;25.80;99.90
45409;DHT22;31162;51.076;3.784;2023-08-12T08:08:01;26.20;99.90
45409;DHT22;31162;51.076;3.784;2023-08-12T08:10:29;28.20;99.90
45409;DHT22;31162;51.076;3.784;2023-08-12T08:12:55;30.10;99.90
45409;DHT22;31162;51.076;3.784;2023-08-12T08:15:20;30.10;99.90
45409;DHT22;31162;51.076;3.784;2023-08-12T08:17:46;29.20;99.90
45409;DHT22;31162;51.076;3.784;2023-08-12T08:20:12;28.80;99.90
45409;DHT22;31162;51.076;3.784;2023-08-12T08:22:38;28.50;99.90
45409;DHT22;31162;51.076;3.784;2023-08-12T08:25:05;28.10;99.90
45409;DHT22;31162;51.076;3.784;2023-08-12T08:27:30;27.80;99.90
45409;DHT22;31162;51.076;3.784;2023-08-12T08:29:57;27.50;99.90
45409;DHT22;31162;51.076;3.784;2023-08-12T08:32:23;27.40;99.90
45409;DHT22;31162;51.076;3.784;2023-08-12T08:34:49;26.80;99.90
45409;DHT22;31162;51.076;3.784;2023-08-12T08:37:14;26.70;99.90
45409;DHT22;31162;51.076;3.784;2023-08-12T08:39:40;27.00;99.90
45409;DHT22;31162;51.076;3.784;2023-08-12T08:42:10;26.60;99.90
45409;DHT22;31162;51.076;3.784;2023-08-12T08:44:41;26.30;99.90
45409;DHT22;31162;51.076;3.784;2023-08-12T08:47:11;26.00;99.90
45409;DHT22;31162;51.076;3.784;2023-08-12T08:49:38;25.90;99.90
45409;DHT22;31162;51.076;3.784;2023-08-12T08:52:05;26.50;99.90
45409;DHT22;31162;51.076;3.784;2023-08-12T08:54:31;28.40;99.90
45409;DHT22;31162;51.076;3.784;2023-08-12T08:56:56;30.10;99.90
45409;DHT22;31162;51.076;3.784;2023-08-12T08:59:22;30.40;99.90
45409;DHT22;31162;51.076;3.784;2023-08-12T09:01:49;29.80;99.90
45409;DHT22;31162;51.076;3.784;2023-08-12T09:04:17;29.70;99.90
45409;DHT22;31162;51.076;3.784;2023-08-12T09:06:44;29.80;99.90
45409;DHT22;31162;51.076;3.784;2023-08-12T09:09:12;30.60;99.90
45409;DHT22;31162;51.076;3.784;2023-08-12T09:11:39;31.60;99.90
45409;DHT22;31162;51.076;3.784;2023-08-12T09:14:10;32.10;99.90
45409;DHT22;31162;51.076;3.784;2023-08-12T09:16:35;32.70;99.90
45409;DHT22;31162;51.076;3.784;2023-08-12T09:19:01;33.20;99.90
45409;DHT22;31162;51.076;3.784;2023-08-12T09:21:27;32.00;99.90
45409;DHT22;31162;51.076;3.784;2023-08-12T09:23:52;31.40;99.90
45409;DHT22;31162;51.076;3.784;2023-08-12T09:26:20;31.00;99.90
45409;DHT22;31162;51.076;3.784;2023-08-12T09:28:47;31.30;99.90
45409;DHT22;31162;51.076;3.784;2023-08-12T09:31:30;32.20;99.90
45409;DHT22;31162;51.076;3.784;2023-08-12T09:34:14;33.30;99.90
45409;DHT22;31162;51.076;3.784;2023-08-12T09:36:40;33.10;99.90
45409;DHT22;31162;51.076;3.784;2023-08-12T09:39:06;34.00;99.90
45409;DHT22;31162;51.076;3.784;2023-08-12T09:41:34;34.80;98.20
45409;DHT22;31162;51.076;3.784;2023-08-12T09:44:02;33.80;99.20
45409;DHT22;31162;51.076;3.784;2023-08-12T09:46:28;32.60;99.80
45409;DHT22;31162;51.076;3.784;2023-08-12T09:48:54;31.90;99.90
45409;DHT22;31162;51.076;3.784;2023-08-12T09:51:20;32.10;99.90
45409;DHT22;31162;51.076;3.784;2023-08-12T09:53:49;33.20;99.90
45409;DHT22;31162;51.076;3.784;2023-08-12T09:56:18;34.70;98.40
45409;DHT22;31162;51.076;3.784;2023-08-12T09:58:48;34.70;98.00
45409;DHT22;31162;51.076;3.784;2023-08-12T10:01:18;34.50;97.30
45409;DHT22;31162;51.076;3.784;2023-08-12T10:03:47;34.20;96.90
45409;DHT22;31162;51.076;3.784;2023-08-12T10:06:15;34.00;97.10
45409;DHT22;31162;51.076;3.784;2023-08-12T10:08:40;34.50;97.40
45409;DHT22;31162;51.076;3.784;2023-08-12T10:11:07;35.80;96.10
45409;DHT22;31162;51.076;3.784;2023-08-12T10:13:34;37.00;94.70
45409;DHT22;31162;51.076;3.784;2023-08-12T10:16:00;38.30;94.40
45409;DHT22;31162;51.076;3.784;2023-08-12T10:18:27;38.70;91.90
45409;DHT22;31162;51.076;3.784;2023-08-12T10:20:54;37.90;92.20
45409;DHT22;31162;51.076;3.784;2023-08-12T10:23:24;38.40;91.90
45409;DHT22;31162;51.076;3.784;2023-08-12T10:25:53;39.20;91.50
45409;DHT22;31162;51.076;3.784;2023-08-12T10:28:20;39.70;89.00
45409;DHT22;31162;51.076;3.784;2023-08-12T10:30:46;39.70;87.60
45409;DHT22;31162;51.076;3.784;2023-08-12T10:33:14;39.60;88.00
45409;DHT22;31162;51.076;3.784;2023-08-12T10:35:48;39.70;86.70
45409;DHT22;31162;51.076;3.784;2023-08-12T10:38:17;39.40;88.80
45409;DHT22;31162;51.076;3.784;2023-08-12T10:40:44;39.40;86.40
45409;DHT22;31162;51.076;3.784;2023-08-12T10:43:11;39.70;86.00
45409;DHT22;31162;51.076;3.784;2023-08-12T10:46:02;39.70;85.80
45409;DHT22;31162;51.076;3.784;2023-08-12T10:48:27;39.00;84.90
45409;DHT22;31162;51.076;3.784;2023-08-12T10:50:55;38.50;85.20
45409;DHT22;31162;51.076;3.784;2023-08-12T10:53:27;38.70;86.40
45409;DHT22;31162;51.076;3.784;2023-08-12T10:55:59;39.00;85.60
45409;DHT22;31162;51.076;3.784;2023-08-12T10:58:33;38.70;85.10
45409;DHT22;31162;51.076;3.784;2023-08-12T11:00:59;38.60;83.80
45409;DHT22;31162;51.076;3.784;2023-08-12T11:03:25;38.10;85.20
45409;DHT22;31162;51.076;3.784;2023-08-12T11:05:53;37.80;84.60
45409;DHT22;31162;51.076;3.784;2023-08-12T11:08:24;38.50;84.20
45409;DHT22;31162;51.076;3.784;2023-08-12T11:10:54;38.80;82.60
45409;DHT22;31162;51.076;3.784;2023-08-12T11:13:20;38.30;82.80
45409;DHT22;31162;51.076;3.784;2023-08-12T11:15:47;38.60;82.70
45409;DHT22;31162;51.076;3.784;2023-08-12T11:18:17;38.40;83.00
45409;DHT22;31162;51.076;3.784;2023-08-12T11:20:44;37.70;84.00
45409;DHT22;31162;51.076;3.784;2023-08-12T11:23:10;38.10;84.60
45409;DHT22;31162;51.076;3.784;2023-08-12T11:25:38;38.00;83.40
45409;DHT22;31162;51.076;3.784;2023-08-12T11:28:05;36.90;84.10
45409;DHT22;31162;51.076;3.784;2023-08-12T11:30:30;36.20;84.00
45409;DHT22;31162;51.076;3.784;2023-08-12T11:32:57;35.90;85.20
45409;DHT22;31162;51.076;3.784;2023-08-12T11:35:24;36.50;83.70
45409;DHT22;31162;51.076;3.784;2023-08-12T11:37:54;36.50;85.80
45409;DHT22;31162;51.076;3.784;2023-08-12T11:40:22;37.50;84.10
45409;DHT22;31162;51.076;3.784;2023-08-12T11:42:49;37.30;84.40
45409;DHT22;31162;51.076;3.784;2023-08-12T11:45:20;38.30;83.00
45409;DHT22;31162;51.076;3.784;2023-08-12T11:47:47;38.70;81.60
45409;DHT22;31162;51.076;3.784;2023-08-12T11:50:19;38.40;81.90
45409;DHT22;31162;51.076;3.784;2023-08-12T11:52:45;39.10;81.80
45409;DHT22;31162;51.076;3.784;2023-08-12T11:55:11;39.10;82.20
45409;DHT22;31162;51.076;3.784;2023-08-12T11:57:40;39.50;80.60
45409;DHT22;31162;51.076;3.784;2023-08-12T12:00:08;39.80;79.30
45409;DHT22;31162;51.076;3.784;2023-08-12T12:02:49;39.40;79.60
45409;DHT22;31162;51.076;3.784;2023-08-12T12:05:15;39.10;80.00
45409;DHT22;31162;51.076;3.784;2023-08-12T12:07:42;39.00;79.40
45409;DHT22;31162;51.076;3.784;2023-08-12T12:10:08;37.90;81.50
45409;DHT22;31162;51.076;3.784;2023-08-12T12:12:36;37.70;81.90
45409;DHT22;31162;51.076;3.784;2023-08-12T12:15:03;36.90;82.70
45409;DHT22;31162;51.076;3.784;2023-08-12T12:17:29;36.70;81.60
45409;DHT22;31162;51.076;3.784;2023-08-12T12:19:59;36.60;81.50
45409;DHT22;31162;51.076;3.784;2023-08-12T12:22:32;36.30;81.80
45409;DHT22;31162;51.076;3.784;2023-08-12T12:25:09;35.20;81.90
45409;DHT22;31162;51.076;3.784;2023-08-12T12:27:37;33.90;84.30
45409;DHT22;31162;51.076;3.784;2023-08-12T12:30:04;32.60;87.00
45409;DHT22;31162;51.076;3.784;2023-08-12T12:32:29;31.90;86.60
45409;DHT22;31162;51.076;3.784;2023-08-12T12:34:55;31.10;89.30
45409;DHT22;31162;51.076;3.784;2023-08-12T12:37:21;30.70;90.20
45409;DHT22;31162;51.076;3.784;2023-08-12T12:39:46;30.60;90.00
45409;DHT22;31162;51.076;3.784;2023-08-12T12:42:12;30.50;90.10
45409;DHT22;31162;51.076;3.784;2023-08-12T12:44:38;30.30;90.00
45409;DHT22;31162;51.076;3.784;2023-08-12T12:47:04;30.20;89.70
45409;DHT22;31162;51.076;3.784;2023-08-12T12:49:30;30.30;88.80
45409;DHT22;31162;51.076;3.784;2023-08-12T12:51:55;29.90;88.10
45409;DHT22;31162;51.076;3.784;2023-08-12T12:54:21;29.60;88.80
45409;DHT22;31162;51.076;3.784;2023-08-12T12:56:47;29.30;90.00
45409;DHT22;31162;51.076;3.784;2023-08-12T12:59:12;29.20;90.40
45409;DHT22;31162;51.076;3.784;2023-08-12T13:01:43;29.00;90.50
45409;DHT22;31162;51.076;3.784;2023-08-12T13:04:09;28.90;91.50
45409;DHT22;31162;51.076;3.784;2023-08-12T13:06:35;28.70;90.40
45409;DHT22;31162;51.076;3.784;2023-08-12T13:09:01;28.30;90.70
45409;DHT22;31162;51.076;3.784;2023-08-12T13:11:28;28.30;90.20
45409;DHT22;31162;51.076;3.784;2023-08-12T13:13:54;28.50;90.90
45409;DHT22;31162;51.076;3.784;2023-08-12T13:16:20;28.70;90.80
45409;DHT22;31162;51.076;3.784;2023-08-12T13:18:46;28.80;89.60
45409;DHT22;31162;51.076;3.784;2023-08-12T13:21:11;28.70;90.00
45409;DHT22;31162;51.076;3.784;2023-08-12T13:23:37;28.70;90.20
45409;DHT22;31162;51.076;3.784;2023-08-12T13:26:03;28.50;89.40
45409;DHT22;31162;51.076;3.784;2023-08-12T13:28:31;28.40;90.30
45409;DHT22;31162;51.076;3.784;2023-08-12T13:30:57;28.30;90.90
45409;DHT22;31162;51.076;3.784;2023-08-12T13:33:23;28.20;90.70
45409;DHT22;31162;51.076;3.784;2023-08-12T13:35:49;28.20;90.80
45409;DHT22;31162;51.076;3.784;2023-08-12T13:38:14;28.20;90.90
45409;DHT22;31162;51.076;3.784;2023-08-12T13:40:40;28.30;90.40
45409;DHT22;31162;51.076;3.784;2023-08-12T13:43:06;28.50;90.30
45409;DHT22;31162;51.076;3.784;2023-08-12T13:45:33;28.50;89.70
45409;DHT22;31162;51.076;3.784;2023-08-12T13:47:59;28.40;89.00
45409;DHT22;31162;51.076;3.784;2023-08-12T13:50:25;28.20;90.00
45409;DHT22;31162;51.076;3.784;2023-08-12T13:52:50;28.10;90.20
45409;DHT22;31162;51.076;3.784;2023-08-12T13:55:16;28.00;90.10
45409;DHT22;31162;51.076;3.784;2023-08-12T13:57:42;28.00;90.40
45409;DHT22;31162;51.076;3.784;2023-08-12T14:00:08;28.10;90.70
45409;DHT22;31162;51.076;3.784;2023-08-12T14:02:39;28.30;90.30
45409;DHT22;31162;51.076;3.784;2023-08-12T14:05:05;28.40;90.30
45409;DHT22;31162;51.076;3.784;2023-08-12T14:07:32;28.60;90.30
45409;DHT22;31162;51.076;3.784;2023-08-12T14:10:00;28.40;89.80
45409;DHT22;31162;51.076;3.784;2023-08-12T14:12:26;28.30;89.20
45409;DHT22;31162;51.076;3.784;2023-08-12T14:14:52;28.40;90.00
45409;DHT22;31162;51.076;3.784;2023-08-12T14:17:19;28.40;89.90
45409;DHT22;31162;51.076;3.784;2023-08-12T14:19:49;28.40;90.00
45409;DHT22;31162;51.076;3.784;2023-08-12T14:22:25;28.60;88.20
45409;DHT22;31162;51.076;3.784;2023-08-12T14:24:51;28.80;88.00
45409;DHT22;31162;51.076;3.784;2023-08-12T14:27:17;28.70;88.20
45409;DHT22;31162;51.076;3.784;2023-08-12T14:29:43;28.50;88.70
45409;DHT22;31162;51.076;3.784;2023-08-12T14:32:09;28.40;88.80
45409;DHT22;31162;51.076;3.784;2023-08-12T14:34:35;28.30;88.90
45409;DHT22;31162;51.076;3.784;2023-08-12T14:37:04;28.20;89.20
45409;DHT22;31162;51.076;3.784;2023-08-12T14:39:29;28.10;89.70
45409;DHT22;31162;51.076;3.784;2023-08-12T14:41:55;27.90;89.00
45409;DHT22;31162;51.076;3.784;2023-08-12T14:44:21;28.00;90.00
45409;DHT22;31162;51.076;3.784;2023-08-12T14:46:47;28.10;88.80
45409;DHT22;31162;51.076;3.784;2023-08-12T14:49:12;28.10;89.10
45409;DHT22;31162;51.076;3.784;2023-08-12T14:51:38;28.00;89.00
45409;DHT22;31162;51.076;3.784;2023-08-12T14:54:04;27.90;90.00
45409;DHT22;31162;51.076;3.784;2023-08-12T14:56:30;28.00;89.80
45409;DHT22;31162;51.076;3.784;2023-08-12T14:58:55;27.90;90.10
45409;DHT22;31162;51.076;3.784;2023-08-12T15:01:21;27.80;89.80
45409;DHT22;31162;51.076;3.784;2023-08-12T15:03:47;27.60;89.30
45409;DHT22;31162;51.076;3.784;2023-08-12T15:06:12;27.50;88.80
45409;DHT22;31162;51.076;3.784;2023-08-12T15:08:39;27.40;90.30
45409;DHT22;31162;51.076;3.784;2023-08-12T15:11:06;27.50;90.10
45409;DHT22;31162;51.076;3.784;2023-08-12T15:13:31;27.60;90.00
45409;DHT22;31162;51.076;3.784;2023-08-12T15:15:57;27.60;89.80
45409;DHT22;31162;51.076;3.784;2023-08-12T15:18:22;27.60;89.60
45409;DHT22;31162;51.076;3.784;2023-08-12T15:20:52;27.60;89.80
45409;DHT22;31162;51.076;3.784;2023-08-12T15:23:18;27.60;87.60
45409;DHT22;31162;51.076;3.784;2023-08-12T15:25:44;27.50;88.90
45409;DHT22;31162;51.076;3.784;2023-08-12T15:28:11;27.40;88.20
45409;DHT22;31162;51.076;3.784;2023-08-12T15:30:36;27.20;89.30